地図

経路データ

SID SEASON NUMBER BASIN SUBBASIN NAME ISO_TIME NATURE LAT LON WMO_WIND WMO_PRES WMO_AGENCY TRACK_TYPE DIST2LAND LANDFALL IFLAG USA_AGENCY USA_ATCF_ID USA_LAT USA_LON USA_RECORD USA_STATUS USA_WIND USA_PRES USA_SSHS USA_R34_NE USA_R34_SE USA_R34_SW USA_R34_NW USA_R50_NE USA_R50_SE USA_R50_SW USA_R50_NW USA_R64_NE USA_R64_SE USA_R64_SW USA_R64_NW USA_POCI USA_ROCI USA_RMW USA_EYE TOKYO_LAT TOKYO_LON TOKYO_GRADE TOKYO_WIND TOKYO_PRES TOKYO_R50_DIR TOKYO_R50_LONG TOKYO_R50_SHORT TOKYO_R30_DIR TOKYO_R30_LONG TOKYO_R30_SHORT TOKYO_LAND CMA_LAT CMA_LON CMA_CAT CMA_WIND CMA_PRES HKO_LAT HKO_LON HKO_CAT HKO_WIND HKO_PRES NEWDELHI_LAT NEWDELHI_LON NEWDELHI_GRADE NEWDELHI_WIND NEWDELHI_PRES NEWDELHI_CI NEWDELHI_DP NEWDELHI_POCI REUNION_LAT REUNION_LON REUNION_TYPE REUNION_WIND REUNION_PRES REUNION_TNUM REUNION_CI REUNION_RMW REUNION_R34_NE REUNION_R34_SE REUNION_R34_SW REUNION_R34_NW REUNION_R50_NE REUNION_R50_SE REUNION_R50_SW REUNION_R50_NW REUNION_R64_NE REUNION_R64_SE REUNION_R64_SW REUNION_R64_NW BOM_LAT BOM_LON BOM_TYPE BOM_WIND BOM_PRES BOM_TNUM BOM_CI BOM_RMW BOM_R34_NE BOM_R34_SE BOM_R34_SW BOM_R34_NW BOM_R50_NE BOM_R50_SE BOM_R50_SW BOM_R50_NW BOM_R64_NE BOM_R64_SE BOM_R64_SW BOM_R64_NW BOM_ROCI BOM_POCI BOM_EYE BOM_POS_METHOD BOM_PRES_METHOD NADI_LAT NADI_LON NADI_CAT NADI_WIND NADI_PRES WELLINGTON_LAT WELLINGTON_LON WELLINGTON_WIND WELLINGTON_PRES DS824_LAT DS824_LON DS824_STAGE DS824_WIND DS824_PRES TD9636_LAT TD9636_LON TD9636_STAGE TD9636_WIND TD9636_PRES TD9635_LAT TD9635_LON TD9635_WIND TD9635_PRES TD9635_ROCI NEUMANN_LAT NEUMANN_LON NEUMANN_CLASS NEUMANN_WIND NEUMANN_PRES MLC_LAT MLC_LON MLC_CLASS MLC_WIND MLC_PRES USA_GUST BOM_GUST BOM_GUST_PER REUNION_GUST REUNION_GUST_PER USA_SEAHGT USA_SEARAD_NE USA_SEARAD_SE USA_SEARAD_SW USA_SEARAD_NW STORM_SPEED STORM_DIR
1978243N13262 1978 80 EP MM NORMAN 1978-08-30 18:00:00 TS 12.8000 -98.0000 30 hurdat_epa main 347 347 O________OO___ hurdat_epa EP141978 12.8000 -98.0000 TD 30 -1 12.8000 -98.0000 TC 30 12.8000 -98.0000 1 30 8 269
1978243N13262 1978 80 EP MM NORMAN 1978-08-30 21:00:00 TS 12.7955 -98.3977 main 364 364 P________PP___ EP141978 12.7976 -98.3950 TD 35 0 12.7976 -98.3950 TC 35 12.7874 -98.4085 1 35 8 270
1978243N13262 1978 80 EP MM NORMAN 1978-08-31 00:00:00 TS 12.8000 -98.8000 40 hurdat_epa main 374 374 O________OO___ hurdat_epa EP141978 12.8000 -98.8000 TS 40 0 12.8000 -98.8000 TC 40 12.8000 -98.8000 2 40 8 272
1978243N13262 1978 80 EP MM NORMAN 1978-08-31 03:00:00 TS 12.8277 -99.2046 main 388 387 P________PP___ EP141978 12.8200 -99.2151 TS 40 0 12.8200 -99.2151 TC 40 12.8587 -99.1629 2 38 8 278
1978243N13262 1978 80 EP MM NORMAN 1978-08-31 06:00:00 TS 12.9129 -99.5814 40 hurdat_epa main 395 384 O________OP___ hurdat_epa EP141978 12.9000 -99.6000 TS 40 0 12.9000 -99.6000 TC 40 12.9644 -99.5071 2 37 7 290
1978243N13262 1978 80 EP MM NORMAN 1978-08-31 09:00:00 TS 13.0725 -99.8956 main 384 372 P________PP___ EP141978 13.0624 -99.9076 TS 37 0 13.0624 -99.9076 TC 37 13.1129 -99.8477 2 36 7 303
1978243N13262 1978 80 EP MM NORMAN 1978-08-31 12:00:00 TS 13.3000 -100.200 35 hurdat_epa main 377 357 O________OO___ hurdat_epa EP141978 13.3000 -100.200 TS 35 0 13.3000 -100.200 TC 35 13.3000 -100.200 2 35 8 310
1978243N13262 1978 80 EP MM NORMAN 1978-08-31 15:00:00 TS 13.5842 -100.529 main 357 338 P________PP___ EP141978 13.5999 -100.527 TS 42 0 13.5999 -100.527 TC 42 13.5214 -100.537 2 40 9 310
1978243N13262 1978 80 EP MM NORMAN 1978-08-31 18:00:00 TS 13.8753 -100.899 50 hurdat_epa main 338 332 O________OP___ hurdat_epa EP141978 13.9000 -100.900 TS 50 0 13.9000 -100.900 TC 50 13.7763 -100.895 2 45 9 305
1978243N13262 1978 80 EP MM NORMAN 1978-08-31 21:00:00 TS 14.1065 -101.311 main 337 333 P________PP___ EP141978 14.1223 -101.313 TS 52 0 14.1223 -101.313 TC 52 14.0430 -101.306 2 50 10 296
1978243N13262 1978 80 EP MM NORMAN 1978-09-01 00:00:00 TS 14.3000 -101.800 55 hurdat_epa main 341 338 O________OO___ hurdat_epa EP141978 14.3000 -101.800 TS 55 0 14.3000 -101.800 TC 55 14.3000 -101.800 2 55 11 289
1978243N13262 1978 80 EP MM NORMAN 1978-09-01 03:00:00 TS 14.4495 -102.365 main 353 342 P________PP___ EP141978 14.4422 -102.348 TS 60 0 14.4422 -102.348 TC 60 14.4787 -102.435 2 57 12 285
1978243N13262 1978 80 EP MM NORMAN 1978-09-01 06:00:00 TS 14.6097 -103.030 65 hurdat_epa main 364 364 O________OP___ hurdat_epa EP141978 14.6000 -103.000 HU 65 1 14.6000 -103.000 TC 65 14.6487 -103.149 2 60 15 284
1978243N13262 1978 80 EP MM NORMAN 1978-09-01 09:00:00 TS 14.8071 -103.818 main 380 373 P________PP___ EP141978 14.7978 -103.800 HU 65 1 14.7978 -103.800 TC 65 14.8442 -103.888 2 62 16 288
1978243N13262 1978 80 EP MM NORMAN 1978-09-01 12:00:00 TS 15.1000 -104.600 65 hurdat_epa main 376 356 O________OO___ hurdat_epa EP141978 15.1000 -104.600 HU 65 1 15.1000 -104.600 TC 65 15.1000 -104.600 4 65 16 299
1978243N13262 1978 80 EP MM NORMAN 1978-09-01 15:00:00 TS 15.5620 -105.229 main 352 347 P________PP___ EP141978 15.5846 -105.237 HU 70 1 15.5846 -105.237 TC 70 15.4713 -105.195 4 72 15 310
1978243N13262 1978 80 EP MM NORMAN 1978-09-01 18:00:00 TS 16.0607 -105.792 75 hurdat_epa main 346 346 O________OP___ hurdat_epa EP141978 16.1000 -105.800 HU 75 1 16.1000 -105.800 TC 75 15.9033 -105.758 4 80 14 310
1978243N13262 1978 80 EP MM NORMAN 1978-09-01 21:00:00 TS 16.4495 -106.338 main 351 341 P________PP___ EP141978 16.4722 -106.343 HU 85 2 16.4722 -106.343 TC 85 16.3587 -106.317 4 87 13 305
1978243N13262 1978 80 EP MM NORMAN 1978-09-02 00:00:00 TS 16.8000 -106.900 95 hurdat_epa main 348 346 O________OO___ hurdat_epa EP141978 16.8000 -106.900 HU 95 2 16.8000 -106.900 TC 95 16.8000 -106.900 4 95 13 302
1978243N13262 1978 80 EP MM NORMAN 1978-09-02 03:00:00 TS 17.1525 -107.531 main 360 360 P________PP___ EP141978 17.1499 -107.528 HU 105 3 17.1499 -107.528 TC 105 17.1631 -107.543 4 100 14 299
1978243N13262 1978 80 EP MM NORMAN 1978-09-02 06:00:00 TS 17.5014 -108.203 115 hurdat_epa main 392 392 O________OP___ hurdat_epa EP141978 17.5000 -108.200 HU 115 4 17.5000 -108.200 TC 115 17.5070 -108.214 4 105 15 298
1978243N13262 1978 80 EP MM NORMAN 1978-09-02 09:00:00 TS 17.8433 -108.895 main 434 427 P________PP___ EP141978 17.8423 -108.893 HU 115 4 17.8423 -108.893 TC 115 17.8474 -108.903 4 110 15 298
1978243N13262 1978 80 EP MM NORMAN 1978-09-02 12:00:00 TS 18.2000 -109.600 115 hurdat_epa main 475 475 O________OO___ hurdat_epa EP141978 18.2000 -109.600 HU 115 4 18.2000 -109.600 TC 115 18.2000 -109.600 4 115 15 299
1978243N13262 1978 80 EP MM NORMAN 1978-09-02 15:00:00 TS 18.5948 -110.297 main 481 446 P________PP___ EP141978 18.5922 -110.300 HU 115 4 18.5922 -110.300 TC 115 18.6051 -110.285 4 116 16 301
1978243N13262 1978 80 EP MM NORMAN 1978-09-02 18:00:00 TS 19.0043 -110.996 115 hurdat_epa main 448 425 O________OP___ hurdat_epa EP141978 19.0000 -111.000 HU 115 4 19.0000 -111.000 TC 115 19.0213 -110.978 4 117 16 302
1978243N13262 1978 80 EP MM NORMAN 1978-09-02 21:00:00 TS 19.4231 -111.690 main 429 418 P________PP___ EP141978 19.4221 -111.693 HU 117 4 19.4221 -111.693 TC 117 19.4268 -111.682 4 118 15 301
1978243N13262 1978 80 EP MM NORMAN 1978-09-03 00:00:00 TS 19.8000 -112.400 120 hurdat_epa main 426 423 O________OO___ hurdat_epa EP141978 19.8000 -112.400 HU 120 4 19.8000 -112.400 TC 120 19.8000 -112.400 4 120 15 295
1978243N13262 1978 80 EP MM NORMAN 1978-09-03 03:00:00 TS 20.0699 -113.146 main 448 448 P________PP___ EP141978 20.0648 -113.143 HU 117 4 20.0648 -113.143 TC 117 20.0905 -113.158 4 118 15 290
1978243N13262 1978 80 EP MM NORMAN 1978-09-03 06:00:00 TS 20.3100 -113.905 115 hurdat_epa main 496 496 O________OP___ hurdat_epa EP141978 20.3000 -113.900 HU 115 4 20.3000 -113.900 TC 115 20.3500 -113.925 4 117 15 290
1978243N13262 1978 80 EP MM NORMAN 1978-09-03 09:00:00 TS 20.5778 -114.674 main 527 527 P________PP___ EP141978 20.5700 -114.673 HU 115 4 20.5700 -114.673 TC 115 20.6094 -114.680 4 116 15 293
1978243N13262 1978 80 EP MM NORMAN 1978-09-03 12:00:00 TS 20.9000 -115.400 115 hurdat_epa main 542 540 O________OO___ hurdat_epa EP141978 20.9000 -115.400 HU 115 4 20.9000 -115.400 TC 115 20.9000 -115.400 4 115 15 301
1978243N13262 1978 80 EP MM NORMAN 1978-09-03 15:00:00 TS 21.3269 -116.025 main 550 550 P________PP___ EP141978 21.3419 -116.015 HU 112 3 21.3419 -116.015 TC 112 21.2668 -116.065 4 105 14 308
1978243N13262 1978 80 EP MM NORMAN 1978-09-03 18:00:00 TS 21.7737 -116.619 110 hurdat_epa main 560 560 O________OP___ hurdat_epa EP141978 21.8000 -116.600 HU 110 3 21.8000 -116.600 TC 110 21.6684 -116.696 4 95 14 306
1978243N13262 1978 80 EP MM NORMAN 1978-09-03 21:00:00 TS 22.1490 -117.255 main 601 595 P________PP___ EP141978 22.1648 -117.243 HU 92 2 22.1648 -117.243 TC 92 22.0857 -117.303 4 85 14 301
1978243N13262 1978 80 EP MM NORMAN 1978-09-04 00:00:00 TS 22.5000 -117.900 75 hurdat_epa main 632 629 O________OO___ hurdat_epa EP141978 22.5000 -117.900 HU 75 1 22.5000 -117.900 TC 75 22.5000 -117.900 4 75 14 300
1978243N13262 1978 80 EP MM NORMAN 1978-09-04 03:00:00 TS 22.8416 -118.572 main 648 639 P________PP___ EP141978 22.8424 -118.565 HU 72 1 22.8424 -118.565 TC 72 22.8384 -118.597 4 72 14 300
1978243N13262 1978 80 EP MM NORMAN 1978-09-04 06:00:00 TS 23.1953 -119.214 70 hurdat_epa main 655 653 O________OP___ hurdat_epa EP141978 23.2000 -119.200 HU 70 1 23.2000 -119.200 TC 70 23.1765 -119.272 4 70 14 302
1978243N13262 1978 80 EP MM NORMAN 1978-09-04 09:00:00 TS 23.5543 -119.826 main 663 663 P________PP___ EP141978 23.5551 -119.818 HU 67 1 23.5551 -119.818 TC 67 23.5511 -119.861 4 67 13 309
1978243N13262 1978 80 EP MM NORMAN 1978-09-04 12:00:00 TS 24.0000 -120.300 65 hurdat_epa main 671 654 O________OO___ hurdat_epa EP141978 24.0000 -120.300 HU 65 1 24.0000 -120.300 TC 65 24.0000 -120.300 4 65 13 326
1978243N13262 1978 80 EP MM NORMAN 1978-09-04 15:00:00 TS 24.6020 -120.586 main 656 631 P________PP___ EP141978 24.6122 -120.597 HU 57 0 24.6122 -120.597 TC 57 24.5613 -120.542 4 60 13 345
1978243N13262 1978 80 EP MM NORMAN 1978-09-04 18:00:00 TS 25.2802 -120.685 50 hurdat_epa main 626 590 O________OP___ hurdat_epa EP141978 25.3000 -120.700 TS 50 0 25.3000 -120.700 TC 50 25.2009 -120.626 4 55 13 358
1978243N13262 1978 80 EP MM NORMAN 1978-09-04 21:00:00 TS 25.9320 -120.630 main 590 557 P________PP___ EP141978 25.9425 -120.638 TS 47 0 25.9425 -120.638 TC 47 25.8900 -120.598 4 50 13 7
1978243N13262 1978 80 EP MM NORMAN 1978-09-05 00:00:00 TS 26.6000 -120.500 45 hurdat_epa main 557 544 O________OO___ hurdat_epa EP141978 26.6000 -120.500 TS 45 0 26.6000 -120.500 TC 45 26.6000 -120.500 2 45 14 6
1978243N13262 1978 80 EP MM NORMAN 1978-09-05 03:00:00 TS 27.2886 -120.465 main 542 494 P________PP___ EP141978 27.2924 -120.472 TS 42 0 27.2924 -120.472 TC 42 27.2732 -120.439 2 42 14 4
1978243N13262 1978 80 EP MM NORMAN 1978-09-05 06:00:00 TS 27.9924 -120.384 40 hurdat_epa main 494 446 O________OP___ hurdat_epa EP141978 28.0000 -120.400 TS 40 0 28.0000 -120.400 TC 40 27.9622 -120.318 2 40 14 10
1978243N13262 1978 80 EP MM NORMAN 1978-09-05 09:00:00 TS 28.6999 -120.190 main 446 388 P________PP___ EP141978 28.7074 -120.202 TS 37 0 28.7074 -120.202 TC 37 28.6700 -120.138 2 37 15 17
1978243N13262 1978 80 EP MM NORMAN 1978-09-05 12:00:00 TS 29.4000 -119.900 35 hurdat_epa main 388 321 O________OO___ hurdat_epa EP141978 29.4000 -119.900 TS 35 0 29.4000 -119.900 TC 35 29.4000 -119.900 2 35 15 23
1978243N13262 1978 80 EP MM NORMAN 1978-09-05 15:00:00 TS 30.0469 -119.527 main 321 249 P________PP___ EP141978 30.0202 -119.507 TS 32 -1 30.0202 -119.507 TC 32 30.1537 -119.606 2 33 15 27
1978243N13262 1978 80 EP MM NORMAN 1978-09-05 18:00:00 TS 30.7357 -119.126 30 hurdat_epa main 249 184 O________OP___ hurdat_epa EP141978 30.7000 -119.100 TD 30 -1 30.7000 -119.100 TC 30 30.9261 -119.266 2 32 17 22
1978243N13262 1978 80 EP MM NORMAN 1978-09-05 21:00:00 TS 31.6656 -118.771 main 182 123 P________PP___ EP141978 31.6600 -118.756 TD 30 -1 31.6600 -118.756 TC 30 31.7105 -118.893 2 31 18 17
1978243N13262 1978 80 EP MM NORMAN 1978-09-06 00:00:00 TS 32.5000 -118.500 30 hurdat_epa main 123 100 O________OO___ hurdat_epa EP141978 32.5000 -118.500 TD 30 -1 32.5000 -118.500 TC 30 32.5000 -118.500 1 30 12 16
1978243N13262 1978 80 EP MM NORMAN 1978-09-06 03:00:00 TS 32.8473 -118.361 main 100 76 P________P____ EP141978 32.8473 -118.361 TD 27 -1 32.8473 -118.361 TC 27 1 5 19
1978243N13262 1978 80 EP MM NORMAN 1978-09-06 06:00:00 ET 33.0000 -118.300 25 hurdat_epa main 76 52 O________O____ hurdat_epa EP141978 33.0000 -118.300 ET 25 -4 33.0000 -118.300 25 1 4 14
1978243N13262 1978 80 EP MM NORMAN 1978-09-06 09:00:00 ET 33.2425 -118.242 main 52 22 P________P____ EP141978 33.2425 -118.242 ET 22 -4 33.2425 -118.242 22 1 5 9
1978243N13262 1978 80 EP MM NORMAN 1978-09-06 12:00:00 ET 33.5000 -118.200 20 hurdat_epa main 22 0 O________O____ hurdat_epa EP141978 33.5000 -118.200 ET 20 -4 33.5000 -118.200 20 6 8
1978243N13262 1978 80 EP MM NORMAN 1978-09-06 15:00:00 ET 33.8075 -118.150 main 0 0 P________P____ EP141978 33.8075 -118.150 ET 20 -4 33.8075 -118.150 20 6 8
1978243N13262 1978 80 EP MM NORMAN 1978-09-06 18:00:00 ET 34.1000 -118.100 20 hurdat_epa main 0 0 O________O____ hurdat_epa EP141978 34.1000 -118.100 ET 20 -4 34.1000 -118.100 20 5 8
1978243N13262 1978 80 EP MM NORMAN 1978-09-06 21:00:00 ET 34.3225 -118.050 main 0 0 P________P____ EP141978 34.3225 -118.050 ET 20 -4 34.3225 -118.050 20 4 11
1978243N13262 1978 80 EP MM NORMAN 1978-09-07 00:00:00 ET 34.5000 -118.000 20 hurdat_epa main 0 O________O____ hurdat_epa EP141978 34.5000 -118.000 ET 20 -4 34.5000 -118.000 20 4 12

IBTrACS Databaseについて

本データベースは、米国NOAAが公開する1842年以降の世界の熱帯低気圧のベストトラックデータアーカイブInternational Best Track Archive for Climate Stewardship (IBTrACS)を、ウェブで閲覧しやすい形式に変換したものです。

最終更新日:2021-12-03